createdAt,value
2017-08-07T13:05:14.566Z,1.63
2017-08-07T13:07:42.157Z,1.80
2017-08-07T13:10:10.527Z,1.73
2017-08-07T13:12:38.158Z,1.63
2017-08-07T13:15:06.008Z,1.97
2017-08-07T13:17:33.588Z,1.50
2017-08-07T13:20:01.171Z,1.60
2017-08-07T13:22:28.790Z,1.63
2017-08-07T13:24:56.436Z,1.70
2017-08-07T13:27:24.327Z,1.63
2017-08-07T13:29:51.924Z,1.97
2017-08-07T13:32:19.490Z,1.70
2017-08-07T13:34:47.415Z,1.57
2017-08-07T13:37:15.008Z,1.70
2017-08-07T13:39:43.371Z,2.03
2017-08-07T13:42:10.959Z,1.47
2017-08-07T13:44:39.316Z,1.90
2017-08-07T13:47:07.268Z,2.40
2017-08-07T13:49:34.866Z,1.70
2017-08-07T13:52:03.212Z,2.07
2017-08-07T13:54:30.829Z,1.63
2017-08-07T13:56:58.394Z,1.30
2017-08-07T13:59:25.979Z,1.40
2017-08-07T14:01:53.569Z,2.10
2017-08-07T14:04:21.919Z,1.30
2017-08-07T14:06:49.525Z,1.57
2017-08-07T14:09:17.131Z,2.60
2017-08-07T14:11:44.744Z,1.37
2017-08-07T14:14:12.332Z,2.27
2017-08-07T14:16:39.903Z,1.80
2017-08-07T14:19:07.522Z,1.47
2017-08-07T14:21:35.097Z,1.47
2017-08-07T14:24:02.783Z,1.80
2017-08-07T14:26:30.738Z,1.20
2017-08-07T14:28:58.321Z,1.60
2017-08-07T14:31:25.921Z,1.90
2017-08-07T14:33:54.272Z,1.50
2017-08-07T14:36:21.892Z,1.30
2017-08-07T14:38:49.462Z,1.40
2017-08-07T14:41:17.028Z,1.67
2017-08-07T14:43:44.622Z,1.70
2017-08-07T14:46:12.199Z,1.90
2017-08-07T14:48:40.699Z,1.60
2017-08-07T14:51:08.296Z,1.67
2017-08-07T14:53:35.940Z,1.90
2017-08-07T14:56:03.555Z,1.80
2017-08-07T14:58:31.905Z,1.77
2017-08-07T15:00:59.528Z,1.27
2017-08-07T15:03:27.116Z,1.50
2017-08-07T15:05:56.339Z,1.63
2017-08-07T15:08:24.551Z,1.73
2017-08-07T15:10:52.150Z,1.33
2017-08-07T15:13:19.784Z,1.63
2017-08-07T15:15:47.347Z,2.00
2017-08-07T15:18:15.231Z,1.50
2017-08-07T15:20:42.815Z,1.67
2017-08-07T15:23:10.429Z,1.53
2017-08-07T15:25:38.026Z,1.60
2017-08-07T15:28:05.692Z,2.00
2017-08-07T15:30:33.333Z,1.83
2017-08-07T15:33:01.085Z,1.87
2017-08-07T15:35:28.940Z,1.87
2017-08-07T15:37:56.536Z,1.83
2017-08-07T15:40:24.095Z,1.83
2017-08-07T15:42:51.724Z,2.33
2017-08-07T15:45:19.312Z,1.67
2017-08-07T15:47:46.908Z,2.10
2017-08-07T15:50:16.210Z,1.50
2017-08-07T15:52:44.168Z,1.83
2017-08-07T15:55:12.519Z,1.67
2017-08-07T15:57:40.864Z,1.60
2017-08-07T16:00:08.490Z,2.13
2017-08-07T16:02:37.025Z,1.67
2017-08-07T16:05:04.862Z,1.47
2017-08-07T16:07:32.448Z,2.10
2017-08-07T16:10:00.284Z,1.73
2017-08-07T16:12:27.907Z,2.10
2017-08-07T16:14:55.527Z,1.73
2017-08-07T16:17:23.171Z,1.70
2017-08-07T16:19:50.772Z,2.00
2017-08-07T16:22:18.386Z,1.80
2017-08-07T16:24:46.238Z,1.60
2017-08-07T16:27:14.582Z,1.90
2017-08-07T16:29:54.423Z,1.70
2017-08-07T16:32:22.025Z,1.60
2017-08-07T16:34:49.683Z,1.80
2017-08-07T16:37:18.039Z,1.63
2017-08-07T16:39:45.640Z,1.90
2017-08-07T16:42:13.245Z,1.80
2017-08-07T16:44:40.820Z,2.47
2017-08-07T16:47:08.781Z,2.20
2017-08-07T16:49:36.391Z,1.77
2017-08-07T16:52:03.956Z,1.50
2017-08-07T16:54:31.580Z,1.63
2017-08-07T16:56:59.927Z,1.90
2017-08-07T16:59:27.547Z,1.80
2017-08-07T17:01:55.128Z,1.90
2017-08-07T17:04:23.188Z,1.87
2017-08-07T17:06:50.813Z,2.00
2017-08-07T17:09:19.152Z,1.97
2017-08-07T17:11:46.795Z,2.00
2017-08-07T17:14:15.275Z,2.20
2017-08-07T17:16:42.872Z,1.90
2017-08-07T17:19:10.479Z,1.90
2017-08-07T17:21:38.470Z,1.87
2017-08-07T17:24:06.052Z,1.90
2017-08-07T17:26:33.636Z,1.87
2017-08-07T17:29:02.012Z,1.90
2017-08-07T17:31:30.368Z,1.90
2017-08-07T17:33:58.041Z,1.50
2017-08-07T17:36:25.618Z,2.17
2017-08-07T17:38:53.561Z,1.90
2017-08-07T17:41:21.146Z,1.70
2017-08-07T17:43:48.745Z,1.90
2017-08-07T17:46:16.325Z,1.90
2017-08-07T17:48:43.923Z,1.87
2017-08-07T17:51:12.587Z,1.90
2017-08-07T17:53:40.975Z,1.93
2017-08-07T17:56:09.302Z,1.93
2017-08-07T17:58:36.923Z,1.93
2017-08-07T18:01:04.487Z,1.93
2017-08-07T18:03:32.094Z,1.97
2017-08-07T18:05:59.681Z,1.70
2017-08-07T18:08:27.648Z,2.30
2017-08-07T18:10:55.245Z,2.00
2017-08-07T18:13:22.823Z,1.90
2017-08-07T18:15:50.431Z,2.33
2017-08-07T18:18:18.045Z,2.00
2017-08-07T18:20:45.930Z,2.10
2017-08-07T18:23:13.509Z,1.80
2017-08-07T18:25:41.215Z,2.07
2017-08-07T18:28:09.034Z,1.70
2017-08-07T18:30:36.623Z,1.83
2017-08-07T18:33:05.229Z,1.93
2017-08-07T18:35:32.778Z,2.40
2017-08-07T18:38:00.406Z,1.80
2017-08-07T18:40:28.005Z,2.20
2017-08-07T18:42:55.618Z,1.67
2017-08-07T18:45:23.575Z,2.30
2017-08-07T18:47:51.383Z,2.70
2017-08-07T18:50:23.866Z,2.07
2017-08-07T18:52:51.476Z,2.00
2017-08-07T18:55:19.060Z,2.10
2017-08-07T18:57:46.674Z,1.90
2017-08-07T19:00:14.256Z,2.30
2017-08-07T19:02:41.879Z,1.97
2017-08-07T19:05:09.476Z,2.10
2017-08-07T19:07:37.346Z,2.07
2017-08-07T19:10:04.987Z,2.10
2017-08-07T19:12:32.588Z,2.30
2017-08-07T19:15:02.040Z,2.20
2017-08-07T19:17:29.624Z,2.20
2017-08-07T19:19:57.494Z,2.00
2017-08-07T19:22:25.075Z,2.30
2017-08-07T19:24:52.789Z,2.73
2017-08-07T19:27:20.391Z,2.70
2017-08-07T19:29:47.980Z,3.50
2017-08-07T19:32:15.639Z,2.60
2017-08-07T19:34:43.449Z,2.43
2017-08-07T19:37:11.408Z,2.00
2017-08-07T19:39:38.968Z,2.30
2017-08-07T19:42:06.623Z,2.50
2017-08-07T19:44:34.233Z,3.33
2017-08-07T19:47:01.849Z,2.50
2017-08-07T19:49:29.456Z,2.57
2017-08-07T19:51:57.065Z,2.93
2017-08-07T19:54:24.933Z,2.77
2017-08-07T19:56:52.638Z,3.10
2017-08-07T19:59:20.220Z,3.00
2017-08-07T20:01:47.831Z,2.87
2017-08-07T20:04:15.438Z,2.83
2017-08-07T20:06:43.825Z,2.50
2017-08-07T20:09:11.448Z,2.90
2017-08-07T20:11:39.403Z,2.90
2017-08-07T20:14:07.849Z,2.53
2017-08-07T20:16:35.490Z,3.23
2017-08-07T20:19:03.383Z,2.63
2017-08-07T20:21:30.983Z,2.77
2017-08-07T20:23:58.628Z,3.13
2017-08-07T20:26:26.249Z,2.80
2017-08-07T20:28:54.262Z,3.00
2017-08-07T20:31:21.903Z,2.87
2017-08-07T20:33:49.500Z,4.10
2017-08-07T20:36:17.129Z,4.00
2017-08-07T20:38:44.753Z,3.23
2017-08-07T20:41:13.124Z,3.10
2017-08-07T20:43:41.483Z,3.30
2017-08-07T20:46:09.447Z,3.37
2017-08-07T20:48:37.076Z,3.20
2017-08-07T20:51:04.960Z,4.30
2017-08-07T20:53:32.551Z,3.00
2017-08-07T20:56:00.901Z,2.90
2017-08-07T20:58:28.514Z,3.53
2017-08-07T21:00:56.093Z,3.10
2017-08-07T21:03:23.957Z,3.40
2017-08-07T21:05:51.559Z,4.30
2017-08-07T21:08:19.134Z,4.60
2017-08-07T21:10:47.490Z,5.00
2017-08-07T21:13:15.111Z,4.47
2017-08-07T21:15:42.748Z,3.57
2017-08-07T21:18:10.363Z,4.73
2017-08-07T21:20:38.352Z,4.23
2017-08-07T21:23:06.064Z,4.93
2017-08-07T21:25:33.653Z,4.10
2017-08-07T21:28:01.264Z,3.53
2017-08-07T21:30:28.870Z,4.10
2017-08-07T21:32:56.621Z,4.13
2017-08-07T21:35:24.182Z,5.17
2017-08-07T21:37:52.067Z,4.20
2017-08-07T21:40:19.666Z,4.47
2017-08-07T21:42:48.044Z,4.80
2017-08-07T21:45:16.454Z,5.00
2017-08-07T21:47:44.011Z,5.10
2017-08-07T21:50:11.643Z,4.70
2017-08-07T21:52:39.989Z,5.43
2017-08-07T21:55:08.026Z,4.63
2017-08-07T21:57:35.614Z,4.53
2017-08-07T22:00:03.201Z,4.40
2017-08-07T22:02:31.616Z,4.83
2017-08-07T22:04:59.223Z,5.30
2017-08-07T22:07:26.860Z,4.93
2017-08-07T22:09:54.470Z,5.30
2017-08-07T22:12:23.102Z,5.03
2017-08-07T22:14:50.732Z,4.80
2017-08-07T22:17:18.430Z,5.00
2017-08-07T22:19:46.051Z,4.83
2017-08-07T22:22:13.628Z,4.70
2017-08-07T22:24:41.232Z,4.80
2017-08-07T22:27:08.851Z,5.00
2017-08-07T22:29:36.741Z,5.20
2017-08-07T22:32:04.315Z,5.00
2017-08-07T22:34:31.906Z,4.47
2017-08-07T22:36:59.527Z,5.40
2017-08-07T22:39:27.110Z,4.70
2017-08-07T22:41:55.510Z,4.80
2017-08-07T22:44:23.087Z,5.30
2017-08-07T22:46:50.982Z,5.60
2017-08-07T22:49:18.588Z,4.43
2017-08-07T22:51:46.951Z,5.53
2017-08-07T22:54:14.546Z,4.73
2017-08-07T22:56:42.292Z,4.73
2017-08-07T22:59:10.729Z,4.57
2017-08-07T23:01:38.303Z,5.30
2017-08-07T23:04:06.152Z,4.23
2017-08-07T23:06:33.745Z,4.53
2017-08-07T23:09:01.334Z,3.60
2017-08-07T23:11:28.955Z,4.50
2017-08-07T23:13:56.526Z,4.33
2017-08-07T23:16:25.188Z,5.00
2017-08-07T23:18:52.758Z,4.50
2017-08-07T23:21:20.364Z,4.40
2017-08-07T23:23:47.965Z,4.17
2017-08-07T23:26:15.548Z,4.17
2017-08-07T23:28:43.910Z,4.33
2017-08-07T23:31:11.502Z,4.50
2017-08-07T23:33:39.416Z,4.73
2017-08-07T23:36:06.998Z,4.60
2017-08-07T23:38:34.573Z,5.00
2017-08-07T23:41:02.968Z,4.10
2017-08-07T23:43:30.529Z,4.50
2017-08-07T23:45:58.127Z,4.87
2017-08-07T23:48:25.709Z,4.70
2017-08-07T23:50:53.546Z,4.33
2017-08-07T23:53:21.137Z,4.60
2017-08-07T23:55:48.705Z,4.20
2017-08-07T23:58:16.297Z,4.17
